createdAt,value
2023-05-06T00:01:17.228Z,10.80
2023-05-06T00:03:44.151Z,9.23
2023-05-06T00:06:11.197Z,9.43
2023-05-06T00:08:37.856Z,9.73
2023-05-06T00:11:04.473Z,8.95
2023-05-06T00:13:31.207Z,8.82
2023-05-06T00:15:57.892Z,9.40
2023-05-06T00:18:24.709Z,9.85
2023-05-06T00:20:51.339Z,9.98
2023-05-06T00:23:17.914Z,9.95
2023-05-06T00:25:44.520Z,9.93
2023-05-06T00:28:11.260Z,9.70
2023-05-06T00:30:37.911Z,10.98
2023-05-06T00:33:04.663Z,11.40
2023-05-06T00:35:31.430Z,10.95
2023-05-06T00:38:06.328Z,11.30
2023-05-06T00:40:32.956Z,11.65
2023-05-06T00:43:00.691Z,13.82
2023-05-06T00:45:27.563Z,13.80
2023-05-06T00:47:54.912Z,12.60
2023-05-06T00:50:22.991Z,10.98
2023-05-06T00:52:50.704Z,10.50
2023-05-06T00:55:17.913Z,12.18
2023-05-06T00:57:44.660Z,12.70
2023-05-06T01:00:11.804Z,12.40
2023-05-06T01:02:46.992Z,13.05
2023-05-06T01:05:15.971Z,16.88
2023-05-06T01:07:58.310Z,17.30
2023-05-06T01:10:33.410Z,15.93
2023-05-06T01:13:12.675Z,18.70
2023-05-06T01:15:48.521Z,18.38
2023-05-06T01:18:19.988Z,19.17
2023-05-06T01:20:52.064Z,18.67
2023-05-06T01:23:19.235Z,11.23
2023-05-06T01:25:48.684Z,12.75
2023-05-06T01:28:15.343Z,12.23
2023-05-06T01:31:07.851Z,13.98
2023-05-06T01:34:02.723Z,14.63
2023-05-06T01:36:41.348Z,15.93
2023-05-06T01:39:18.846Z,14.32
2023-05-06T01:41:48.906Z,16.17
2023-05-06T01:44:17.334Z,16.17
2023-05-06T01:46:45.798Z,16.83
2023-05-06T01:49:14.799Z,21.42
2023-05-06T01:51:46.824Z,25.45
2023-05-06T01:54:14.220Z,25.08
2023-05-06T01:56:40.915Z,24.40
2023-05-06T01:59:10.611Z,23.50
2023-05-06T02:01:37.289Z,27.50
2023-05-06T02:04:04.347Z,25.88
2023-05-06T02:06:31.779Z,29.48
2023-05-06T02:08:58.353Z,29.88
2023-05-06T02:11:24.936Z,27.45
2023-05-06T02:13:51.542Z,33.05
2023-05-06T02:16:18.276Z,21.70
2023-05-06T02:18:45.849Z,15.63
2023-05-06T02:21:13.649Z,15.23
2023-05-06T02:23:40.239Z,13.88
2023-05-06T02:26:06.840Z,13.43
2023-05-06T02:28:33.463Z,13.75
2023-05-06T02:31:00.100Z,14.23
2023-05-06T02:33:26.809Z,13.50
2023-05-06T02:35:53.445Z,17.38
2023-05-06T02:38:21.289Z,16.05
2023-05-06T02:40:47.908Z,17.77
2023-05-06T02:43:14.577Z,20.25
2023-05-06T02:45:41.345Z,18.48
2023-05-06T02:48:07.932Z,18.48
2023-05-06T02:50:36.136Z,15.55
2023-05-06T02:53:02.812Z,15.95
2023-05-06T02:55:29.477Z,19.13
2023-05-06T02:57:56.114Z,19.77
2023-05-06T03:00:22.839Z,17.25
2023-05-06T03:02:49.462Z,15.70
2023-05-06T03:05:16.270Z,15.18
2023-05-06T03:07:42.972Z,16.13
2023-05-06T03:10:10.464Z,16.20
2023-05-06T03:12:37.140Z,14.88
2023-05-06T03:15:03.963Z,13.65
2023-05-06T03:17:30.699Z,12.25
2023-05-06T03:19:57.394Z,12.50
2023-05-06T03:22:23.977Z,12.55
2023-05-06T03:24:50.612Z,13.02
2023-05-06T03:27:17.355Z,14.30
2023-05-06T03:29:43.984Z,14.60
2023-05-06T03:32:10.604Z,13.27
2023-05-06T03:34:37.286Z,13.00
2023-05-06T03:37:04.833Z,13.45
2023-05-06T03:39:31.534Z,14.23
2023-05-06T03:41:58.249Z,14.60
2023-05-06T03:44:24.872Z,16.80
2023-05-06T03:46:51.838Z,13.15
2023-05-06T03:49:21.428Z,12.80
2023-05-06T03:51:48.606Z,11.50
2023-05-06T03:54:15.324Z,11.90
2023-05-06T03:56:42.068Z,12.43
2023-05-06T03:59:09.050Z,12.45
2023-05-06T04:01:35.706Z,13.32
2023-05-06T04:04:02.462Z,13.77
2023-05-06T04:06:29.074Z,13.15
2023-05-06T04:08:55.662Z,13.38
2023-05-06T04:11:22.367Z,16.65
2023-05-06T04:13:48.992Z,20.30
2023-05-06T04:16:15.694Z,25.10
2023-05-06T04:18:44.114Z,28.27
2023-05-06T04:21:12.251Z,27.00
2023-05-06T04:23:38.967Z,21.15
2023-05-06T04:26:05.620Z,22.45
2023-05-06T04:28:32.369Z,22.95
2023-05-06T04:30:58.984Z,23.25
2023-05-06T04:33:25.746Z,21.25
2023-05-06T04:36:00.349Z,20.95
2023-05-06T04:38:33.073Z,20.15
2023-05-06T04:40:59.688Z,20.13
2023-05-06T04:43:27.763Z,23.15
2023-05-06T04:45:58.150Z,22.63
2023-05-06T04:48:24.955Z,22.30
2023-05-06T04:50:51.666Z,23.70
2023-05-06T04:53:18.482Z,23.42
2023-05-06T04:55:45.166Z,22.17
2023-05-06T04:58:11.811Z,19.25
2023-05-06T05:00:38.577Z,21.08
2023-05-06T05:03:08.483Z,23.10
2023-05-06T05:08:01.752Z,22.05
2023-05-06T05:10:28.429Z,21.75
2023-05-06T05:12:55.073Z,21.10
2023-05-06T05:15:24.524Z,21.95
2023-05-06T05:17:52.435Z,20.15
2023-05-06T05:20:19.057Z,19.77
2023-05-06T05:22:45.688Z,18.58
2023-05-06T05:25:12.542Z,18.73
2023-05-06T05:27:39.375Z,18.55
2023-05-06T05:30:07.394Z,18.70
2023-05-06T05:32:34.032Z,18.45
2023-05-06T05:35:00.788Z,18.23
2023-05-06T05:37:27.575Z,16.65
2023-05-06T05:39:54.188Z,16.73
2023-05-06T05:42:20.899Z,16.60
2023-05-06T05:44:47.496Z,15.95
2023-05-06T05:47:15.226Z,16.25
2023-05-06T05:49:41.950Z,15.82
2023-05-06T05:52:09.874Z,14.00
2023-05-06T05:54:36.606Z,13.88
2023-05-06T05:57:03.797Z,11.85
2023-05-06T05:59:30.541Z,12.52
2023-05-06T06:01:57.130Z,11.80
2023-05-06T06:04:23.840Z,11.30
2023-05-06T06:06:50.784Z,10.57
2023-05-06T06:09:17.350Z,12.23
2023-05-06T06:11:43.967Z,11.43
2023-05-06T06:14:11.394Z,10.45
2023-05-06T06:16:38.449Z,10.07
2023-05-06T06:19:05.358Z,9.55
2023-05-06T06:21:34.620Z,8.00
2023-05-06T06:24:01.329Z,8.52
2023-05-06T06:26:27.990Z,7.95
2023-05-06T06:28:54.684Z,7.13
2023-05-06T06:31:21.398Z,6.95
2023-05-06T06:33:48.233Z,6.63
2023-05-06T06:36:14.916Z,6.95
2023-05-06T06:38:44.576Z,6.20
2023-05-06T06:43:40.372Z,6.00
2023-05-06T06:46:07.057Z,6.32
2023-05-06T06:48:33.737Z,5.70
2023-05-06T06:51:00.438Z,5.95
2023-05-06T06:53:27.084Z,5.32
2023-05-06T06:55:53.858Z,5.60
2023-05-06T06:58:20.474Z,5.45
2023-05-06T07:00:47.111Z,5.32
2023-05-06T07:03:19.353Z,5.13
2023-05-06T07:05:46.207Z,5.30
2023-05-06T07:08:17.152Z,5.15
2023-05-06T07:10:47.638Z,5.38
2023-05-06T07:13:14.862Z,5.50
2023-05-06T07:15:41.491Z,5.55
2023-05-06T07:18:08.160Z,5.63
2023-05-06T07:20:36.793Z,5.22
2023-05-06T07:23:03.696Z,5.40
2023-05-06T07:25:31.391Z,5.30
2023-05-06T07:27:58.156Z,6.18
2023-05-06T07:30:24.888Z,5.32
2023-05-06T07:32:51.633Z,5.95
2023-05-06T07:35:18.328Z,5.10
2023-05-06T07:37:50.718Z,5.90
2023-05-06T07:40:21.298Z,5.45
2023-05-06T07:42:47.951Z,5.50
2023-05-06T07:45:15.448Z,5.22
2023-05-06T07:47:42.133Z,5.20
2023-05-06T07:50:09.384Z,5.03
2023-05-06T07:52:36.143Z,5.30
2023-05-06T07:55:02.919Z,5.47
2023-05-06T07:57:29.757Z,4.90
2023-05-06T08:00:01.097Z,5.57
2023-05-06T08:02:28.258Z,4.95
2023-05-06T08:04:55.091Z,4.90
2023-05-06T08:07:21.899Z,4.70
2023-05-06T08:09:48.654Z,5.80
2023-05-06T08:12:16.181Z,6.45
2023-05-06T08:14:42.937Z,5.43
2023-05-06T08:17:09.630Z,5.55
2023-05-06T08:19:36.360Z,5.57
2023-05-06T08:22:03.044Z,5.10
2023-05-06T08:24:29.711Z,4.80
2023-05-06T08:26:56.355Z,4.70
2023-05-06T08:29:22.949Z,5.25
2023-05-06T08:31:49.757Z,4.72
2023-05-06T08:34:18.656Z,4.60
2023-05-06T08:36:45.504Z,5.00
2023-05-06T08:39:12.616Z,4.72
2023-05-06T08:41:41.116Z,4.85
2023-05-06T08:44:08.578Z,4.50
2023-05-06T08:46:35.648Z,4.95
2023-05-06T08:49:06.052Z,4.70
2023-05-06T08:51:35.124Z,4.43
2023-05-06T08:54:04.371Z,4.80
2023-05-06T08:56:33.653Z,4.45
2023-05-06T08:59:01.343Z,4.50
2023-05-06T09:01:28.812Z,4.28
2023-05-06T09:03:58.182Z,4.90
2023-05-06T09:06:27.198Z,4.20
2023-05-06T09:08:54.268Z,4.70
2023-05-06T09:11:23.936Z,4.60
2023-05-06T09:13:51.524Z,7.78
2023-05-06T09:16:32.101Z,3.78
2023-05-06T09:18:59.293Z,3.92
2023-05-06T09:21:41.730Z,3.85
2023-05-06T09:24:10.457Z,4.20
2023-05-06T09:26:38.618Z,4.00
2023-05-06T09:29:06.433Z,4.00
2023-05-06T09:31:33.419Z,3.85
2023-05-06T09:34:01.125Z,3.92
2023-05-06T09:36:30.792Z,3.80
2023-05-06T09:38:57.808Z,3.60
2023-05-06T09:41:26.583Z,4.18
2023-05-06T09:43:54.352Z,4.30
2023-05-06T09:46:23.458Z,4.70
2023-05-06T09:48:53.092Z,3.30
2023-05-06T09:51:20.575Z,5.05
2023-05-06T09:53:47.804Z,6.18
2023-05-06T09:56:16.170Z,3.90
2023-05-06T09:58:43.346Z,3.70
2023-05-06T10:01:19.281Z,3.30
2023-05-06T10:03:54.685Z,3.28
2023-05-06T10:06:23.586Z,3.20
2023-05-06T10:08:51.118Z,3.20
2023-05-06T10:11:21.378Z,3.38
2023-05-06T10:13:49.752Z,3.50
2023-05-06T10:16:18.435Z,3.10
2023-05-06T10:18:46.562Z,3.40
2023-05-06T10:21:23.042Z,3.10
2023-05-06T10:24:00.742Z,3.70
2023-05-06T10:26:31.627Z,3.10
2023-05-06T10:29:04.663Z,3.10
2023-05-06T10:31:32.932Z,3.20
2023-05-06T10:34:03.063Z,3.30
2023-05-06T10:36:33.661Z,3.00
2023-05-06T10:39:01.711Z,2.67
2023-05-06T10:41:29.200Z,3.00
2023-05-06T10:43:57.613Z,2.83
2023-05-06T10:46:28.799Z,3.37
2023-05-06T10:49:14.018Z,2.90
2023-05-06T10:51:42.207Z,2.97
2023-05-06T10:54:10.707Z,3.10
2023-05-06T10:56:40.113Z,3.28
2023-05-06T10:59:09.378Z,3.50
2023-05-06T11:04:19.885Z,2.90
2023-05-06T11:10:06.266Z,3.00
2023-05-06T11:13:22.456Z,2.97
2023-05-06T11:15:52.007Z,3.10
2023-05-06T11:18:24.545Z,2.90
2023-05-06T11:20:51.997Z,3.00
2023-05-06T11:23:21.810Z,2.80
2023-05-06T11:25:48.702Z,3.10
2023-05-06T11:28:15.964Z,3.35
2023-05-06T11:30:44.175Z,3.40
2023-05-06T11:33:22.773Z,3.10
2023-05-06T11:35:49.485Z,3.30
2023-05-06T11:38:16.173Z,3.33
2023-05-06T11:40:42.894Z,3.35
2023-05-06T11:43:13.315Z,3.20
2023-05-06T11:45:41.472Z,3.05
2023-05-06T11:48:12.034Z,3.17
2023-05-06T11:50:39.004Z,3.20
2023-05-06T11:53:05.702Z,3.00
2023-05-06T11:55:32.324Z,3.00
2023-05-06T11:57:59.070Z,3.20
2023-05-06T12:00:26.117Z,3.20
2023-05-06T12:02:56.512Z,3.50
2023-05-06T12:05:23.963Z,3.15
2023-05-06T12:07:52.312Z,3.00
2023-05-06T12:10:20.304Z,3.13
2023-05-06T12:12:47.205Z,3.08
2023-05-06T12:15:14.161Z,3.05
2023-05-06T12:17:41.193Z,3.50
2023-05-06T12:20:10.605Z,3.50
2023-05-06T12:22:39.033Z,2.97
2023-05-06T12:25:15.799Z,3.00
2023-05-06T12:27:42.527Z,2.85
2023-05-06T12:30:11.325Z,9.02
2023-05-06T12:32:57.198Z,4.68
2023-05-06T12:35:31.269Z,2.63
2023-05-06T12:38:08.704Z,3.13
2023-05-06T12:40:35.557Z,3.20
2023-05-06T12:43:03.036Z,2.90
2023-05-06T12:45:29.830Z,2.78
2023-05-06T12:48:02.412Z,2.80
2023-05-06T12:50:42.570Z,3.05
2023-05-06T12:53:13.381Z,2.78
2023-05-06T12:55:45.290Z,2.80
2023-05-06T12:58:16.698Z,3.50
2023-05-06T13:00:43.447Z,3.05
2023-05-06T13:03:11.628Z,3.00
2023-05-06T13:05:38.446Z,2.83
2023-05-06T13:08:08.074Z,3.20
2023-05-06T13:10:34.690Z,3.25
2023-05-06T13:13:01.349Z,3.15
2023-05-06T13:15:28.194Z,2.90
2023-05-06T13:17:54.873Z,2.97
2023-05-06T13:20:22.067Z,2.72
2023-05-06T13:22:54.355Z,2.85
2023-05-06T13:25:22.264Z,2.83
2023-05-06T13:27:49.287Z,2.83
2023-05-06T13:30:17.019Z,3.05
2023-05-06T13:32:43.838Z,2.60
2023-05-06T13:35:10.718Z,3.17
2023-05-06T13:37:37.527Z,3.08
2023-05-06T13:40:11.012Z,3.10
2023-05-06T13:42:41.391Z,2.65
2023-05-06T13:45:08.871Z,2.78
2023-05-06T13:47:35.531Z,3.05
2023-05-06T13:50:06.120Z,2.92
2023-05-06T13:52:32.763Z,2.90
2023-05-06T13:54:59.461Z,2.88
2023-05-06T13:57:26.238Z,2.75
2023-05-06T13:59:52.917Z,2.90
2023-05-06T14:02:19.616Z,2.80
2023-05-06T14:04:50.214Z,2.80
2023-05-06T14:07:16.862Z,3.40
2023-05-06T14:09:43.755Z,3.30
2023-05-06T14:12:10.366Z,3.70
2023-05-06T14:14:37.068Z,3.50
2023-05-06T14:17:03.733Z,3.10
2023-05-06T14:19:30.319Z,3.00
2023-05-06T14:21:56.969Z,3.20
2023-05-06T14:24:23.563Z,3.33
2023-05-06T14:26:50.494Z,3.00
2023-05-06T14:29:17.260Z,3.00
2023-05-06T14:31:45.173Z,2.90
2023-05-06T14:34:11.863Z,3.33
2023-05-06T14:36:38.571Z,3.50
2023-05-06T14:39:05.195Z,3.72
2023-05-06T14:41:31.838Z,3.45
2023-05-06T14:43:58.488Z,3.22
2023-05-06T14:46:27.756Z,3.22
2023-05-06T14:48:55.924Z,3.20
2023-05-06T14:51:22.672Z,2.80
2023-05-06T14:53:49.959Z,3.17
2023-05-06T14:56:16.678Z,2.80
2023-05-06T14:58:43.382Z,3.15
2023-05-06T15:01:10.014Z,3.22
2023-05-06T15:03:37.734Z,2.70
2023-05-06T15:06:05.701Z,3.10
2023-05-06T15:08:32.513Z,3.00
2023-05-06T15:11:00.183Z,2.75
2023-05-06T15:13:27.936Z,3.00
2023-05-06T15:15:55.275Z,2.90
2023-05-06T15:18:21.933Z,2.90
2023-05-06T15:20:48.616Z,3.08
2023-05-06T15:23:15.227Z,3.30
2023-05-06T15:25:42.278Z,3.50
2023-05-06T15:28:09.314Z,2.90
2023-05-06T15:30:37.604Z,3.38
2023-05-06T15:33:05.171Z,3.00
2023-05-06T15:35:33.357Z,2.90
2023-05-06T15:38:03.236Z,2.95
2023-05-06T15:40:32.526Z,3.20
2023-05-06T15:42:59.452Z,2.70
2023-05-06T15:45:26.356Z,3.00
2023-05-06T15:47:54.249Z,3.60
2023-05-06T15:50:32.766Z,3.25
2023-05-06T15:53:01.585Z,3.50
2023-05-06T15:55:28.931Z,3.20
2023-05-06T15:57:56.046Z,3.00
2023-05-06T16:00:23.683Z,3.03
2023-05-06T16:02:50.561Z,3.28
2023-05-06T16:05:17.331Z,3.10
2023-05-06T16:07:43.957Z,2.97
2023-05-06T16:10:11.026Z,3.13
2023-05-06T16:12:37.890Z,3.20
2023-05-06T16:15:04.865Z,3.03
2023-05-06T16:17:33.099Z,3.42
2023-05-06T16:19:59.750Z,2.95
2023-05-06T16:22:26.379Z,3.38
2023-05-06T16:24:53.014Z,3.65
2023-05-06T16:27:19.929Z,3.58
2023-05-06T16:29:47.576Z,3.85
2023-05-06T16:32:17.175Z,3.60
2023-05-06T16:34:43.796Z,3.47
2023-05-06T16:37:10.711Z,3.17
2023-05-06T16:39:37.332Z,4.60
2023-05-06T16:42:06.805Z,4.65
2023-05-06T16:47:00.003Z,5.60
2023-05-06T16:49:28.152Z,5.55
2023-05-06T16:51:54.896Z,6.22
2023-05-06T16:54:21.555Z,8.05
2023-05-06T16:56:52.164Z,8.77
2023-05-06T16:59:21.721Z,7.95
2023-05-06T17:01:49.072Z,8.50
2023-05-06T17:04:23.636Z,7.45
2023-05-06T17:06:53.120Z,6.47
2023-05-06T17:11:47.188Z,6.10
2023-05-06T17:14:14.289Z,5.28
2023-05-06T17:16:43.136Z,5.30
2023-05-06T17:19:12.648Z,5.80
2023-05-06T17:21:39.873Z,5.30
2023-05-06T17:24:06.767Z,5.35
2023-05-06T17:26:34.388Z,5.50
2023-05-06T17:29:01.827Z,5.28
2023-05-06T17:31:28.544Z,4.90
2023-05-06T17:33:55.231Z,5.15
2023-05-06T17:36:21.963Z,5.30
2023-05-06T17:38:49.009Z,4.93
2023-05-06T17:41:18.436Z,4.85
2023-05-06T17:43:47.470Z,5.07
2023-05-06T17:46:14.281Z,4.68
2023-05-06T17:48:41.260Z,5.20
2023-05-06T17:51:07.865Z,4.72
2023-05-06T17:53:34.566Z,5.03
2023-05-06T17:56:01.434Z,5.68
2023-05-06T17:58:28.350Z,5.55
2023-05-06T18:00:55.222Z,5.03
2023-05-06T18:03:22.745Z,5.35
2023-05-06T18:05:50.615Z,5.80
2023-05-06T18:08:17.666Z,5.90
2023-05-06T18:10:44.345Z,6.22
2023-05-06T18:13:11.381Z,6.43
2023-05-06T18:15:38.084Z,6.30
2023-05-06T18:18:04.786Z,5.70
2023-05-06T18:20:32.424Z,7.43
2023-05-06T18:22:59.263Z,9.43
2023-05-06T18:25:26.030Z,9.60
2023-05-06T18:27:52.663Z,9.20
2023-05-06T18:30:19.274Z,9.50
2023-05-06T18:32:45.919Z,9.85
2023-05-06T18:35:12.910Z,9.88
2023-05-06T18:37:39.897Z,8.70
2023-05-06T18:40:09.148Z,8.55
2023-05-06T18:42:36.051Z,8.10
2023-05-06T18:45:04.676Z,7.68
2023-05-06T18:47:32.270Z,7.50
2023-05-06T18:50:00.750Z,8.25
2023-05-06T18:52:27.692Z,7.05
2023-05-06T18:54:54.333Z,8.05
2023-05-06T18:57:23.055Z,7.63
2023-05-06T18:59:49.647Z,8.93
2023-05-06T19:02:16.229Z,9.52
2023-05-06T19:04:43.540Z,10.30
2023-05-06T19:07:11.138Z,9.77
2023-05-06T19:09:38.711Z,9.38
2023-05-06T19:12:05.812Z,9.25
2023-05-06T19:14:34.596Z,8.63
2023-05-06T19:17:02.853Z,7.23
2023-05-06T19:19:29.603Z,7.43
2023-05-06T19:21:57.421Z,7.90
2023-05-06T19:24:24.216Z,7.95
2023-05-06T19:26:51.202Z,7.25
2023-05-06T19:29:17.944Z,7.82
2023-05-06T19:31:44.561Z,8.55
2023-05-06T19:34:11.151Z,7.85
2023-05-06T19:36:37.776Z,7.20
2023-05-06T19:39:04.452Z,6.97
2023-05-06T19:41:31.099Z,6.97
2023-05-06T19:43:57.678Z,6.55
2023-05-06T19:46:24.332Z,6.43
2023-05-06T19:48:50.938Z,7.13
2023-05-06T19:51:17.654Z,7.07
2023-05-06T19:53:44.352Z,7.03
2023-05-06T19:56:12.655Z,6.78
2023-05-06T19:58:41.041Z,6.57
2023-05-06T20:01:11.015Z,7.70
2023-05-06T20:03:38.143Z,7.63
2023-05-06T20:06:05.082Z,6.40
2023-05-06T20:08:31.727Z,5.85
2023-05-06T20:10:58.390Z,5.72
2023-05-06T20:13:25.146Z,5.50
2023-05-06T20:15:52.064Z,6.28
2023-05-06T20:18:18.695Z,6.13
2023-05-06T20:20:46.007Z,6.00
2023-05-06T20:23:12.722Z,5.30
2023-05-06T20:25:39.362Z,5.93
2023-05-06T20:28:06.901Z,5.93
2023-05-06T20:30:34.278Z,5.82
2023-05-06T20:33:01.365Z,5.57
2023-05-06T20:35:28.201Z,5.50
2023-05-06T20:37:55.846Z,5.55
2023-05-06T20:40:22.662Z,5.70
2023-05-06T20:42:49.309Z,5.78
2023-05-06T20:45:16.038Z,5.75
2023-05-06T20:47:42.783Z,5.35
2023-05-06T20:50:16.788Z,5.50
2023-05-06T20:52:45.703Z,5.45
2023-05-06T20:55:14.038Z,5.13
2023-05-06T20:57:44.931Z,4.90
2023-05-06T21:00:12.133Z,5.50
2023-05-06T21:02:41.277Z,4.82
2023-05-06T21:05:09.302Z,5.40
2023-05-06T21:07:36.329Z,5.10
2023-05-06T21:10:05.708Z,4.88
2023-05-06T21:12:33.402Z,5.22
2023-05-06T21:15:01.743Z,4.75
2023-05-06T21:17:29.250Z,4.63
2023-05-06T21:19:55.970Z,4.97
2023-05-06T21:22:23.940Z,4.65
2023-05-06T21:24:51.232Z,4.32
2023-05-06T21:27:17.972Z,4.40
2023-05-06T21:29:44.612Z,4.70
2023-05-06T21:32:11.476Z,4.50
2023-05-06T21:34:38.051Z,4.53
2023-05-06T21:37:04.674Z,4.60
2023-05-06T21:39:31.338Z,4.30
2023-05-06T21:41:57.970Z,4.38
2023-05-06T21:44:26.109Z,4.47
2023-05-06T21:46:52.813Z,4.78
2023-05-06T21:49:22.456Z,4.45
2023-05-06T21:51:49.318Z,4.40
2023-05-06T21:54:17.457Z,4.72
2023-05-06T21:56:44.903Z,4.38
2023-05-06T21:59:11.530Z,4.53
2023-05-06T22:01:38.985Z,4.32
2023-05-06T22:04:11.391Z,4.47
2023-05-06T22:06:38.916Z,4.30
2023-05-06T22:09:09.445Z,4.30
2023-05-06T22:11:40.250Z,4.30
2023-05-06T22:14:07.194Z,4.43
2023-05-06T22:16:37.754Z,4.35
2023-05-06T22:19:06.662Z,4.10
2023-05-06T22:21:34.596Z,4.20
2023-05-06T22:24:01.412Z,3.88
2023-05-06T22:26:28.302Z,4.68
2023-05-06T22:28:57.749Z,3.83
2023-05-06T22:31:25.157Z,4.10
2023-05-06T22:33:55.570Z,4.18
2023-05-06T22:36:22.449Z,3.97
2023-05-06T22:38:49.165Z,4.15
2023-05-06T22:41:17.487Z,4.30
2023-05-06T22:43:46.410Z,3.75
2023-05-06T22:46:13.120Z,3.90
2023-05-06T22:48:41.256Z,4.43
2023-05-06T22:51:07.856Z,4.07
2023-05-06T22:53:34.476Z,4.28
2023-05-06T22:56:01.092Z,3.95
2023-05-06T22:58:27.708Z,4.05
2023-05-06T23:00:54.989Z,4.18
2023-05-06T23:03:22.762Z,4.07
2023-05-06T23:05:49.782Z,3.88
2023-05-06T23:08:16.662Z,4.25
2023-05-06T23:10:46.582Z,4.00
2023-05-06T23:13:13.287Z,4.20
2023-05-06T23:15:41.181Z,3.95
2023-05-06T23:18:07.936Z,3.85
2023-05-06T23:20:34.572Z,3.90
2023-05-06T23:23:01.291Z,4.60
2023-05-06T23:25:27.923Z,4.28
2023-05-06T23:27:54.581Z,4.50
2023-05-06T23:30:21.288Z,4.15
2023-05-06T23:32:47.877Z,4.72
2023-05-06T23:35:14.487Z,4.63
2023-05-06T23:37:41.117Z,5.30
2023-05-06T23:40:08.277Z,4.82
2023-05-06T23:42:34.867Z,5.00
2023-05-06T23:45:01.495Z,4.75
2023-05-06T23:47:29.093Z,5.57
2023-05-06T23:49:55.731Z,5.85
2023-05-06T23:52:25.593Z,5.55
2023-05-06T23:54:52.251Z,5.80
2023-05-06T23:57:18.859Z,5.60
2023-05-06T23:59:45.639Z,5.65
